createdAt,value
2018-02-22T00:01:01.724Z,65.20
2018-02-22T00:03:29.432Z,66.37
2018-02-22T00:05:56.951Z,68.37
2018-02-22T00:08:24.456Z,59.43
2018-02-22T00:10:52.003Z,64.23
2018-02-22T00:13:19.567Z,60.77
2018-02-22T00:15:47.083Z,63.07
2018-02-22T00:18:14.580Z,70.70
2018-02-22T00:20:42.138Z,66.30
2018-02-22T00:23:09.699Z,63.97
2018-02-22T00:25:37.259Z,65.17
2018-02-22T00:28:04.755Z,64.50
2018-02-22T00:30:32.282Z,62.00
2018-02-22T00:32:59.776Z,61.23
2018-02-22T00:35:27.296Z,58.93
2018-02-22T00:37:54.859Z,63.30
2018-02-22T00:40:22.376Z,57.40
2018-02-22T00:42:49.982Z,59.47
2018-02-22T00:45:17.499Z,63.37
2018-02-22T00:47:45.006Z,59.00
2018-02-22T00:50:12.531Z,57.57
2018-02-22T00:52:40.027Z,58.00
2018-02-22T00:55:07.543Z,59.67
2018-02-22T00:57:36.052Z,52.13
2018-02-22T01:00:03.611Z,55.87
2018-02-22T01:02:31.102Z,58.57
2018-02-22T01:04:58.728Z,55.90
2018-02-22T01:07:26.214Z,56.03
2018-02-22T01:09:53.739Z,54.10
2018-02-22T01:12:21.314Z,52.10
2018-02-22T01:14:48.827Z,58.77
2018-02-22T01:17:16.323Z,52.67
2018-02-22T01:19:43.857Z,54.00
2018-02-22T01:22:11.461Z,53.30
2018-02-22T01:24:38.980Z,56.50
2018-02-22T01:27:06.588Z,53.50
2018-02-22T01:29:34.128Z,57.53
2018-02-22T01:32:01.619Z,50.10
2018-02-22T01:34:29.163Z,50.93
2018-02-22T01:36:56.660Z,51.20
2018-02-22T01:39:24.168Z,54.53
2018-02-22T01:41:51.683Z,50.27
2018-02-22T01:44:19.179Z,53.67
2018-02-22T01:46:46.709Z,53.63
2018-02-22T01:49:14.216Z,53.53
2018-02-22T01:51:41.851Z,55.00
2018-02-22T01:54:09.343Z,52.37
2018-02-22T01:56:36.862Z,52.23
2018-02-22T01:59:04.403Z,52.40
2018-02-22T02:01:31.938Z,56.67
2018-02-22T02:03:59.432Z,52.13
2018-02-22T02:06:26.964Z,50.80
2018-02-22T02:08:54.472Z,50.10
2018-02-22T02:11:21.995Z,53.20
2018-02-22T02:13:49.491Z,48.70
2018-02-22T02:16:17.007Z,54.20
2018-02-22T02:18:44.667Z,51.83
2018-02-22T02:21:12.280Z,53.67
2018-02-22T02:23:39.778Z,54.10
2018-02-22T02:26:07.505Z,56.23
2018-02-22T02:28:35.015Z,52.83
2018-02-22T02:31:02.532Z,52.67
2018-02-22T02:33:30.036Z,61.63
2018-02-22T02:35:57.555Z,58.27
2018-02-22T02:38:25.080Z,56.73
2018-02-22T02:40:52.856Z,53.73
2018-02-22T02:43:20.348Z,47.17
2018-02-22T02:45:47.877Z,50.00
2018-02-22T02:48:15.424Z,54.97
2018-02-22T02:50:43.086Z,58.30
2018-02-22T02:53:10.589Z,62.83
2018-02-22T02:55:38.125Z,53.83
2018-02-22T02:58:05.623Z,54.63
2018-02-22T03:00:33.158Z,55.70
2018-02-22T03:03:00.657Z,57.77
2018-02-22T03:05:28.155Z,56.43
2018-02-22T03:07:55.667Z,59.80
2018-02-22T03:10:23.284Z,54.50
2018-02-22T03:12:50.811Z,54.67
2018-02-22T03:15:18.372Z,64.90
2018-02-22T03:17:45.939Z,58.90
2018-02-22T03:20:13.498Z,56.53
2018-02-22T03:22:41.035Z,57.50
2018-02-22T03:25:08.537Z,62.70
2018-02-22T03:27:36.099Z,53.70
2018-02-22T03:30:03.600Z,54.50
2018-02-22T03:32:31.192Z,57.67
2018-02-22T03:34:58.683Z,62.07
2018-02-22T03:37:26.224Z,58.00
2018-02-22T03:39:53.719Z,61.13
2018-02-22T03:42:21.251Z,59.33
2018-02-22T03:44:48.756Z,59.13
2018-02-22T03:47:16.299Z,57.70
2018-02-22T03:49:43.787Z,55.87
2018-02-22T03:52:11.484Z,56.97
2018-02-22T03:54:39.004Z,57.77
2018-02-22T03:57:06.534Z,58.33
2018-02-22T03:59:34.031Z,56.13
2018-02-22T04:02:01.603Z,59.83
2018-02-22T04:04:29.160Z,58.37
2018-02-22T04:06:56.719Z,56.93
2018-02-22T04:09:24.296Z,59.57
2018-02-22T04:11:51.815Z,56.63
2018-02-22T04:14:19.311Z,55.87
2018-02-22T04:16:46.860Z,50.60
2018-02-22T04:19:14.367Z,57.50
2018-02-22T04:21:41.883Z,50.67
2018-02-22T04:24:09.434Z,59.17
2018-02-22T04:26:36.948Z,58.73
2018-02-22T04:29:04.469Z,53.57
2018-02-22T04:31:32.006Z,54.97
2018-02-22T04:33:59.516Z,59.37
2018-02-22T04:36:27.027Z,54.87
2018-02-22T04:38:54.519Z,56.87
2018-02-22T04:41:22.035Z,56.30
2018-02-22T04:43:49.576Z,55.27
2018-02-22T04:46:17.112Z,61.20
2018-02-22T04:48:44.632Z,58.23
2018-02-22T04:51:12.202Z,59.40
2018-02-22T04:53:39.728Z,58.93
2018-02-22T04:56:07.286Z,56.20
2018-02-22T04:58:34.864Z,55.00
2018-02-22T05:01:02.425Z,56.97
2018-02-22T05:03:29.955Z,58.83
2018-02-22T05:05:57.616Z,56.30
2018-02-22T05:08:25.135Z,49.90
2018-02-22T05:10:52.648Z,58.87
2018-02-22T05:13:20.193Z,57.47
2018-02-22T05:15:47.711Z,57.00
2018-02-22T05:18:15.243Z,55.50
2018-02-22T05:20:42.799Z,54.43
2018-02-22T05:23:10.323Z,56.53
2018-02-22T05:25:37.952Z,53.53
2018-02-22T05:28:05.471Z,63.10
2018-02-22T05:30:33.040Z,55.20
2018-02-22T05:33:00.599Z,56.30
2018-02-22T05:35:28.087Z,51.17
2018-02-22T05:37:55.615Z,55.93
2018-02-22T05:40:23.181Z,54.97
2018-02-22T05:42:50.715Z,54.13
2018-02-22T05:45:18.228Z,56.77
2018-02-22T05:47:45.751Z,54.67
2018-02-22T05:50:13.257Z,49.77
2018-02-22T05:52:40.772Z,63.13
2018-02-22T05:55:08.336Z,55.20
2018-02-22T05:57:35.889Z,58.80
2018-02-22T06:00:03.404Z,57.60
2018-02-22T06:02:30.966Z,60.07
2018-02-22T06:04:58.456Z,56.50
2018-02-22T06:07:25.995Z,56.17
2018-02-22T06:09:53.492Z,58.33
2018-02-22T06:12:21.040Z,58.83
2018-02-22T06:14:48.612Z,59.13
2018-02-22T06:17:16.167Z,53.60
2018-02-22T06:19:43.732Z,50.17
2018-02-22T06:22:11.236Z,51.37
2018-02-22T06:24:38.836Z,58.17
2018-02-22T06:27:06.344Z,60.30
2018-02-22T06:29:33.863Z,58.07
2018-02-22T06:32:01.415Z,56.93
2018-02-22T06:34:28.931Z,57.67
2018-02-22T06:36:56.547Z,58.27
2018-02-22T06:39:24.112Z,62.60
2018-02-22T06:41:51.612Z,69.27
2018-02-22T06:44:19.143Z,60.97
2018-02-22T06:46:46.672Z,57.67
2018-02-22T06:49:14.192Z,64.13
2018-02-22T06:51:41.691Z,62.83
2018-02-22T06:54:09.252Z,61.87
2018-02-22T06:56:36.768Z,56.10
2018-02-22T06:59:04.291Z,57.77
2018-02-22T07:01:31.837Z,53.93
2018-02-22T07:03:59.351Z,52.30
2018-02-22T07:06:26.957Z,59.13
2018-02-22T07:08:54.475Z,52.83
2018-02-22T07:11:22.036Z,56.10
2018-02-22T07:13:49.567Z,60.10
2018-02-22T07:16:17.087Z,50.23
2018-02-22T07:18:44.604Z,62.77
2018-02-22T07:21:12.119Z,55.57
2018-02-22T07:23:39.632Z,56.83
2018-02-22T07:26:07.130Z,61.03
2018-02-22T07:28:34.648Z,54.27
2018-02-22T07:31:02.160Z,53.10
2018-02-22T07:33:29.686Z,55.13
2018-02-22T07:35:57.171Z,48.83
2018-02-22T07:38:24.730Z,49.97
2018-02-22T07:40:52.272Z,55.03
2018-02-22T07:43:19.833Z,56.53
2018-02-22T07:45:47.451Z,52.17
2018-02-22T07:48:15.023Z,56.23
2018-02-22T07:50:42.539Z,56.17
2018-02-22T07:53:10.067Z,52.50
2018-02-22T07:55:37.592Z,49.57
2018-02-22T07:58:05.188Z,52.60
2018-02-22T08:00:32.727Z,50.63
2018-02-22T08:03:00.224Z,51.20
2018-02-22T08:05:27.764Z,52.00
2018-02-22T08:07:55.328Z,52.37
2018-02-22T08:10:22.855Z,47.53
2018-02-22T08:12:50.485Z,54.43
2018-02-22T08:15:18.011Z,54.27
2018-02-22T08:17:45.566Z,56.13
2018-02-22T08:20:13.136Z,51.20
2018-02-22T08:22:40.636Z,42.57
2018-02-22T08:25:08.152Z,48.80
2018-02-22T08:27:36.607Z,48.20
2018-02-22T08:30:04.126Z,45.57
2018-02-22T08:32:31.628Z,48.17
2018-02-22T08:34:59.149Z,51.93
2018-02-22T08:37:26.644Z,53.53
2018-02-22T08:39:54.160Z,48.53
2018-02-22T08:42:21.704Z,54.50
2018-02-22T08:44:49.263Z,50.80
2018-02-22T08:47:16.859Z,48.70
2018-02-22T08:49:44.371Z,49.67
2018-02-22T08:52:11.882Z,46.47
2018-02-22T08:54:39.488Z,46.40
2018-02-22T08:57:07.029Z,47.60
2018-02-22T08:59:34.546Z,50.63
2018-02-22T09:02:02.151Z,50.43
2018-02-22T09:04:29.668Z,53.33
2018-02-22T09:06:57.285Z,48.97
2018-02-22T09:09:24.950Z,51.03
2018-02-22T09:11:52.444Z,53.73
2018-02-22T09:14:19.967Z,46.40
2018-02-22T09:16:47.463Z,48.67
2018-02-22T09:19:14.980Z,48.63
2018-02-22T09:21:42.565Z,45.83
2018-02-22T09:24:10.158Z,43.57
2018-02-22T09:26:37.743Z,51.63
2018-02-22T09:29:05.317Z,50.93
2018-02-22T09:31:32.836Z,52.30
2018-02-22T09:34:00.346Z,50.80
2018-02-22T09:36:27.901Z,47.50
2018-02-22T09:38:55.430Z,50.27
2018-02-22T09:41:22.955Z,45.57
2018-02-22T09:43:50.481Z,47.23
2018-02-22T09:46:18.024Z,47.97
2018-02-22T09:48:45.525Z,47.53
2018-02-22T09:51:13.055Z,48.97
2018-02-22T09:53:40.546Z,47.57
2018-02-22T09:56:08.059Z,47.77
2018-02-22T09:58:35.620Z,59.83
2018-02-22T10:01:03.176Z,45.10
2018-02-22T10:03:30.672Z,46.27
2018-02-22T10:05:58.184Z,49.37
2018-02-22T10:08:25.732Z,48.63
2018-02-22T10:10:53.276Z,50.97
2018-02-22T10:13:20.780Z,49.57
2018-02-22T10:15:48.336Z,49.67
2018-02-22T10:18:15.834Z,44.33
2018-02-22T10:20:43.604Z,48.27
2018-02-22T10:23:11.099Z,52.20
2018-02-22T10:25:38.671Z,63.77
2018-02-22T10:28:07.175Z,59.97
2018-02-22T10:30:34.831Z,54.13
2018-02-22T10:33:02.364Z,42.73
2018-02-22T10:35:29.919Z,43.30
2018-02-22T10:37:57.428Z,46.83
2018-02-22T10:40:24.988Z,44.83
2018-02-22T10:42:52.512Z,45.50
2018-02-22T10:45:20.028Z,48.27
2018-02-22T10:47:47.535Z,42.80
2018-02-22T10:50:15.048Z,43.03
2018-02-22T10:52:42.546Z,43.63
2018-02-22T10:55:11.024Z,43.00
2018-02-22T10:57:38.536Z,41.90
2018-02-22T11:00:06.056Z,46.77
2018-02-22T11:02:39.164Z,46.47
2018-02-22T11:05:06.676Z,43.40
2018-02-22T11:07:34.196Z,41.43
2018-02-22T11:10:01.684Z,43.63
2018-02-22T11:12:29.213Z,44.73
2018-02-22T11:14:56.710Z,40.77
2018-02-22T11:17:24.258Z,39.27
2018-02-22T11:19:51.925Z,40.20
2018-02-22T11:22:19.442Z,44.10
2018-02-22T11:24:47.855Z,44.47
2018-02-22T11:27:15.363Z,45.40
2018-02-22T11:29:42.859Z,40.03
2018-02-22T11:32:10.364Z,40.10
2018-02-22T11:34:37.870Z,44.70
2018-02-22T11:37:05.384Z,44.70
2018-02-22T11:39:32.940Z,43.93
2018-02-22T11:42:00.454Z,42.03
2018-02-22T11:44:27.973Z,44.23
2018-02-22T11:46:55.529Z,44.93
2018-02-22T11:49:23.076Z,37.73
2018-02-22T11:51:50.629Z,39.63
2018-02-22T11:54:18.112Z,42.03
2018-02-22T11:56:45.652Z,40.43
2018-02-22T11:59:13.152Z,38.13
2018-02-22T12:01:40.664Z,43.87
2018-02-22T12:04:08.238Z,38.33
2018-02-22T12:06:35.753Z,42.50
2018-02-22T12:09:03.247Z,52.53
2018-02-22T12:11:30.771Z,39.23
2018-02-22T12:13:58.360Z,39.10
2018-02-22T12:16:25.879Z,34.47
2018-02-22T12:18:53.371Z,44.13
2018-02-22T12:21:20.968Z,38.07
2018-02-22T12:23:48.499Z,39.27
2018-02-22T12:26:16.064Z,37.37
2018-02-22T12:28:43.561Z,48.43
2018-02-22T12:31:11.079Z,44.90
2018-02-22T12:33:38.635Z,38.87
2018-02-22T12:36:06.152Z,45.73
2018-02-22T12:38:33.639Z,40.53
2018-02-22T12:41:01.145Z,43.57
2018-02-22T12:43:28.695Z,39.57
2018-02-22T12:45:56.232Z,36.17
2018-02-22T12:48:23.776Z,48.47
2018-02-22T12:50:51.295Z,45.47
2018-02-22T12:53:18.868Z,38.07
2018-02-22T12:55:46.376Z,38.70
2018-02-22T12:58:13.887Z,39.60
2018-02-22T13:00:41.423Z,40.97
2018-02-22T13:03:08.931Z,37.13
2018-02-22T13:05:36.453Z,38.57
2018-02-22T13:08:04.235Z,41.50
2018-02-22T13:10:31.728Z,40.93
2018-02-22T13:12:59.252Z,39.43
2018-02-22T13:15:26.747Z,39.43
2018-02-22T13:17:54.299Z,38.63
2018-02-22T13:20:21.804Z,36.73
2018-02-22T13:22:49.319Z,36.80
2018-02-22T13:25:16.817Z,37.87
2018-02-22T13:27:44.333Z,39.43
2018-02-22T13:30:11.845Z,38.03
2018-02-22T13:32:51.245Z,41.23
2018-02-22T13:35:18.794Z,39.13
2018-02-22T13:40:48.935Z,36.33
2018-02-22T13:43:16.450Z,42.37
2018-02-22T13:45:43.941Z,37.77
2018-02-22T13:48:11.515Z,34.43
2018-02-22T13:50:50.848Z,37.60
2018-02-22T13:53:18.363Z,36.93
2018-02-22T13:55:45.871Z,36.17
2018-02-22T13:58:13.387Z,35.33
2018-02-22T14:00:52.759Z,35.97
2018-02-22T14:03:20.282Z,33.57
2018-02-22T14:05:47.774Z,35.87
2018-02-22T14:08:27.320Z,35.47
2018-02-22T14:10:54.893Z,36.17
2018-02-22T14:13:22.424Z,33.83
2018-02-22T14:15:49.911Z,30.37
2018-02-22T14:18:17.440Z,33.83
2018-02-22T14:20:45.545Z,35.47
2018-02-22T14:23:13.135Z,39.07
2018-02-22T14:25:40.619Z,32.83
2018-02-22T14:28:08.142Z,31.73
2018-02-22T14:30:35.638Z,35.37
2018-02-22T14:33:03.147Z,37.57
2018-02-22T14:35:30.680Z,34.87
2018-02-22T14:37:58.191Z,34.10
2018-02-22T14:40:25.692Z,35.03
2018-02-22T14:42:53.212Z,36.67
2018-02-22T14:45:20.708Z,34.90
2018-02-22T14:47:48.560Z,35.07
2018-02-22T14:50:16.052Z,33.60
2018-02-22T14:52:43.592Z,37.73
2018-02-22T14:55:11.155Z,36.23
2018-02-22T14:57:38.711Z,35.93
2018-02-22T15:00:06.200Z,35.80
2018-02-22T15:02:33.836Z,37.33
2018-02-22T15:05:01.396Z,35.33
2018-02-22T15:07:28.920Z,31.13
2018-02-22T15:09:56.416Z,35.07
2018-02-22T15:12:23.936Z,37.13
2018-02-22T15:14:51.464Z,32.77
2018-02-22T15:17:18.959Z,33.97
2018-02-22T15:19:46.508Z,32.83
2018-02-22T15:22:14.013Z,35.70
2018-02-22T15:24:41.523Z,31.20
2018-02-22T15:27:09.029Z,32.60
2018-02-22T15:29:36.543Z,35.13
2018-02-22T15:32:04.151Z,34.43
2018-02-22T15:34:31.663Z,34.70
2018-02-22T15:36:59.156Z,36.60
2018-02-22T15:39:26.673Z,37.13
2018-02-22T15:41:54.164Z,34.53
2018-02-22T15:44:21.743Z,40.27
2018-02-22T15:46:50.208Z,34.07
2018-02-22T15:49:17.726Z,31.80
2018-02-22T15:51:45.211Z,35.37
2018-02-22T15:54:12.815Z,31.67
2018-02-22T15:56:40.308Z,34.53
2018-02-22T15:59:07.828Z,34.80
2018-02-22T16:01:36.598Z,38.33
2018-02-22T16:04:04.108Z,34.73
2018-02-22T16:06:31.596Z,33.30
2018-02-22T16:08:59.184Z,34.53
2018-02-22T16:11:26.679Z,36.20
2018-02-22T16:13:54.195Z,34.33
2018-02-22T16:16:21.752Z,34.10
2018-02-22T16:18:49.299Z,38.40
2018-02-22T16:21:16.857Z,35.47
2018-02-22T16:23:44.380Z,39.03
2018-02-22T16:26:11.872Z,30.80
2018-02-22T16:28:39.395Z,29.00
2018-02-22T16:31:06.915Z,35.47
2018-02-22T16:33:34.424Z,33.43
2018-02-22T16:36:01.941Z,32.57
2018-02-22T16:38:29.460Z,30.20
2018-02-22T16:40:57.052Z,34.77
2018-02-22T16:43:24.584Z,36.13
2018-02-22T16:45:52.077Z,33.60
2018-02-22T16:48:19.610Z,31.90
2018-02-22T16:50:47.125Z,33.57
2018-02-22T16:53:14.619Z,33.70
2018-02-22T16:55:42.207Z,31.40
2018-02-22T16:58:09.703Z,32.60
2018-02-22T17:00:37.219Z,35.30
2018-02-22T17:03:04.752Z,31.83
2018-02-22T17:05:32.284Z,32.97
2018-02-22T17:08:00.788Z,35.33
2018-02-22T17:10:28.319Z,33.07
2018-02-22T17:12:55.819Z,34.83
2018-02-22T17:15:23.404Z,40.97
2018-02-22T17:17:50.961Z,30.77
2018-02-22T17:20:18.483Z,29.20
2018-02-22T17:22:45.998Z,31.87
2018-02-22T17:25:13.524Z,31.20
2018-02-22T17:27:46.600Z,31.27
2018-02-22T17:30:19.817Z,32.20
2018-02-22T17:32:47.307Z,35.50
2018-02-22T17:35:16.635Z,30.60
2018-02-22T17:37:44.124Z,33.30
2018-02-22T17:43:15.500Z,30.00
2018-02-22T17:45:43.120Z,34.27
2018-02-22T17:48:10.617Z,36.13
2018-02-22T17:50:38.155Z,32.73
2018-02-22T17:53:05.672Z,33.67
2018-02-22T17:55:33.240Z,33.23
2018-02-22T17:58:00.735Z,31.87
2018-02-22T18:00:28.248Z,34.73
2018-02-22T18:02:55.760Z,32.80
2018-02-22T18:05:23.292Z,32.13
2018-02-22T18:07:50.796Z,36.17
2018-02-22T18:10:18.358Z,36.77
2018-02-22T18:12:45.877Z,34.37
2018-02-22T18:15:13.452Z,35.47
2018-02-22T18:17:40.976Z,39.90
2018-02-22T18:20:08.505Z,39.90
2018-02-22T18:22:36.000Z,33.27
2018-02-22T18:25:03.537Z,35.23
2018-02-22T18:27:31.040Z,32.80
2018-02-22T18:29:58.648Z,33.43
2018-02-22T18:32:26.137Z,34.77
2018-02-22T18:34:53.750Z,30.73
2018-02-22T18:37:26.887Z,34.83
2018-02-22T18:39:54.399Z,36.63
2018-02-22T18:42:21.924Z,29.23
2018-02-22T18:44:55.084Z,33.60
2018-02-22T18:47:22.590Z,34.20
2018-02-22T18:49:50.099Z,31.63
2018-02-22T18:52:17.626Z,38.23
2018-02-22T18:54:45.211Z,36.43
2018-02-22T18:57:12.711Z,32.87
2018-02-22T18:59:40.203Z,33.77
2018-02-22T19:02:07.711Z,34.27
2018-02-22T19:04:35.198Z,38.93
2018-02-22T19:07:02.772Z,34.10
2018-02-22T19:09:30.331Z,35.37
2018-02-22T19:11:57.923Z,35.83
2018-02-22T19:14:25.375Z,34.13
2018-02-22T19:16:53.017Z,31.47
2018-02-22T19:19:20.503Z,31.67
2018-02-22T19:21:48.044Z,33.83
2018-02-22T19:24:15.588Z,31.87
2018-02-22T19:26:43.252Z,33.93
2018-02-22T19:29:11.702Z,31.73
2018-02-22T19:31:39.284Z,33.60
2018-02-22T19:34:06.771Z,33.23
2018-02-22T19:36:34.306Z,31.73
2018-02-22T19:39:01.799Z,30.23
2018-02-22T19:41:29.323Z,33.97
2018-02-22T19:43:56.887Z,42.30
2018-02-22T19:46:24.403Z,32.47
2018-02-22T19:48:52.010Z,36.30
2018-02-22T19:51:20.479Z,33.33
2018-02-22T19:53:48.050Z,35.73
2018-02-22T19:56:15.620Z,31.53
2018-02-22T19:58:43.116Z,32.73
2018-02-22T20:01:10.636Z,30.60
2018-02-22T20:03:38.132Z,29.83
2018-02-22T20:06:05.643Z,34.63
2018-02-22T20:08:33.207Z,31.13
2018-02-22T20:11:00.723Z,29.60
2018-02-22T20:13:29.216Z,30.93
2018-02-22T20:15:56.816Z,36.47
2018-02-22T20:18:24.303Z,33.43
2018-02-22T20:20:51.824Z,31.40
2018-02-22T20:23:19.380Z,28.53
2018-02-22T20:25:46.887Z,33.77
2018-02-22T20:28:14.382Z,34.87
2018-02-22T20:30:41.920Z,31.00
2018-02-22T20:33:09.516Z,31.50
2018-02-22T20:35:37.079Z,29.40
2018-02-22T20:38:04.605Z,31.50
2018-02-22T20:40:32.092Z,28.70
2018-02-22T20:42:59.603Z,33.57
2018-02-22T20:45:27.091Z,37.17
2018-02-22T20:47:54.628Z,35.97
2018-02-22T20:50:22.143Z,35.33
2018-02-22T20:52:53.620Z,30.17
2018-02-22T20:55:22.965Z,37.00
2018-02-22T20:57:50.483Z,30.60
2018-02-22T21:00:17.973Z,26.83
2018-02-22T21:02:45.504Z,34.83
2018-02-22T21:05:13.031Z,30.53
2018-02-22T21:07:40.544Z,26.23
2018-02-22T21:10:08.066Z,32.47
2018-02-22T21:12:35.580Z,31.10
2018-02-22T21:15:03.071Z,39.70
2018-02-22T21:17:30.584Z,29.67
2018-02-22T21:19:58.072Z,31.03
2018-02-22T21:22:25.604Z,29.00
2018-02-22T21:24:53.091Z,30.37
2018-02-22T21:27:20.636Z,31.13
2018-02-22T21:29:48.208Z,31.47
2018-02-22T21:32:15.723Z,28.67
2018-02-22T21:34:43.330Z,34.60
2018-02-22T21:37:10.847Z,32.53
2018-02-22T21:39:38.336Z,31.93
2018-02-22T21:42:05.996Z,32.27
2018-02-22T21:44:33.520Z,30.07
2018-02-22T21:47:01.031Z,31.47
2018-02-22T21:49:28.581Z,33.93
2018-02-22T21:51:56.103Z,31.07
2018-02-22T21:54:23.587Z,30.23
2018-02-22T21:56:51.163Z,29.67
2018-02-22T21:59:18.660Z,29.90
2018-02-22T22:01:46.171Z,33.83
2018-02-22T22:04:13.664Z,31.47
2018-02-22T22:06:41.196Z,27.67
2018-02-22T22:09:08.685Z,30.17
2018-02-22T22:11:36.176Z,30.80
2018-02-22T22:14:03.775Z,29.87
2018-02-22T22:16:31.301Z,30.23
2018-02-22T22:18:58.903Z,28.77
2018-02-22T22:21:26.400Z,27.87
2018-02-22T22:23:53.916Z,29.60
2018-02-22T22:26:21.416Z,26.63
2018-02-22T22:28:48.980Z,30.97
2018-02-22T22:31:16.479Z,26.77
2018-02-22T22:33:43.988Z,32.57
2018-02-22T22:36:11.495Z,30.90
2018-02-22T22:38:39.075Z,29.93
2018-02-22T22:41:06.564Z,29.47
2018-02-22T22:43:34.185Z,28.43
2018-02-22T22:46:01.701Z,29.70
2018-02-22T22:48:29.215Z,29.57
2018-02-22T22:50:56.728Z,29.60
2018-02-22T22:53:24.308Z,25.70
2018-02-22T22:55:51.877Z,25.43
2018-02-22T22:58:19.483Z,31.23
2018-02-22T23:00:46.969Z,28.70
2018-02-22T23:03:14.554Z,24.77
2018-02-22T23:05:42.108Z,28.07
2018-02-22T23:08:09.620Z,29.53
2018-02-22T23:10:37.112Z,29.07
2018-02-22T23:13:04.624Z,30.67
2018-02-22T23:15:32.111Z,28.30
2018-02-22T23:17:59.631Z,28.07
2018-02-22T23:20:27.139Z,26.53
2018-02-22T23:22:54.692Z,30.40
2018-02-22T23:25:23.207Z,25.93
2018-02-22T23:27:50.729Z,31.33
2018-02-22T23:30:18.323Z,29.20
2018-02-22T23:32:45.838Z,28.67
2018-02-22T23:35:13.348Z,29.10
2018-02-22T23:37:40.912Z,27.97
2018-02-22T23:40:15.023Z,27.80
2018-02-22T23:42:43.504Z,27.90
2018-02-22T23:45:11.059Z,28.83
2018-02-22T23:47:38.622Z,26.57
2018-02-22T23:50:06.115Z,25.67
2018-02-22T23:52:33.640Z,29.60
2018-02-22T23:55:01.165Z,27.53
2018-02-22T23:57:28.756Z,27.07
2018-02-22T23:59:56.272Z,30.07
